Terminal Aerodrome Forecast
Issued by NWS

Home | Current Version | Previous Version | Text Only | Print | Product List | Glossary On
Versions: 1 2 3 4 5 6 7 8 9 10 11 12 13
000
FTUS46 KSGX 011700
TAFPSP
TAF
KPSP 011727Z 0118/0218 VRB05KT P6SM FEW250
     FM012100 14008KT P6SM FEW250
     FM020200 32006KT P6SM SCT250=

USA.gov is the U.S. government's official web portal to all federal, state and local government web resources and services.